sensor_id;sensor_type;location;lat;lon;timestamp;pressure;altitude;pressure_sealevel;temperature;humidity
3812;BME280;1921;49.368;11.068;2022-08-25T00:02:02;97597.47;;;15.64;99.15
3812;BME280;1921;49.368;11.068;2022-08-25T00:04:28;97804.94;;;16.88;99.57
3812;BME280;1921;49.368;11.068;2022-08-25T00:06:54;97649.56;;;15.87;99.55
3812;BME280;1921;49.368;11.068;2022-08-25T00:09:24;97656.00;;;15.98;99.08
3812;BME280;1921;49.368;11.068;2022-08-25T00:11:50;97694.38;;;16.12;99.60
3812;BME280;1921;49.368;11.068;2022-08-25T00:14:29;97616.50;;;15.59;100.00
3812;BME280;1921;49.368;11.068;2022-08-25T00:16:56;97702.06;;;16.07;100.00
3812;BME280;1921;49.368;11.068;2022-08-25T00:19:27;97591.84;;;15.54;100.00
3812;BME280;1921;49.368;11.068;2022-08-25T00:21:54;97706.09;;;16.16;100.00
3812;BME280;1921;49.368;11.068;2022-08-25T00:24:20;97741.63;;;16.32;100.00
3812;BME280;1921;49.368;11.068;2022-08-25T00:26:52;97763.41;;;16.46;100.00
3812;BME280;1921;49.368;11.068;2022-08-25T00:29:20;97698.78;;;16.18;100.00
3812;BME280;1921;49.368;11.068;2022-08-25T00:31:47;97786.69;;;16.49;100.00
3812;BME280;1921;49.368;11.068;2022-08-25T00:34:18;97493.56;;;14.52;100.00
3812;BME280;1921;49.368;11.068;2022-08-25T00:36:44;97658.53;;;15.73;100.00
3812;BME280;1921;49.368;11.068;2022-08-25T00:39:11;97604.50;;;15.19;100.00
3812;BME280;1921;49.368;11.068;2022-08-25T00:41:41;97796.97;;;16.57;100.00
3812;BME280;1921;49.368;11.068;2022-08-25T00:44:10;97728.53;;;16.19;100.00
3812;BME280;1921;49.368;11.068;2022-08-25T00:46:42;97662.59;;;15.69;100.00
3812;BME280;1921;49.368;11.068;2022-08-25T00:52:14;97744.59;;;16.04;100.00
3812;BME280;1921;49.368;11.068;2022-08-25T00:54:58;97924.63;;;17.37;100.00
3812;BME280;1921;49.368;11.068;2022-08-25T00:57:31;97751.66;;;16.10;100.00
3812;BME280;1921;49.368;11.068;2022-08-25T00:59:58;97574.25;;;14.90;100.00
3812;BME280;1921;49.368;11.068;2022-08-25T01:02:25;97576.69;;;14.98;100.00
3812;BME280;1921;49.368;11.068;2022-08-25T01:04:51;97694.59;;;15.39;100.00
3812;BME280;1921;49.368;11.068;2022-08-25T01:07:19;97535.16;;;14.55;100.00
3812;BME280;1921;49.368;11.068;2022-08-25T01:09:49;97577.50;;;14.92;100.00
3812;BME280;1921;49.368;11.068;2022-08-25T01:12:16;97800.75;;;16.29;100.00
3812;BME280;1921;49.368;11.068;2022-08-25T01:14:43;97620.03;;;15.27;100.00
3812;BME280;1921;49.368;11.068;2022-08-25T01:17:12;97464.72;;;14.25;100.00
3812;BME280;1921;49.368;11.068;2022-08-25T01:19:37;97612.44;;;14.92;100.00
3812;BME280;1921;49.368;11.068;2022-08-25T01:22:04;97694.56;;;15.59;100.00
3812;BME280;1921;49.368;11.068;2022-08-25T01:24:51;97560.78;;;14.46;100.00
3812;BME280;1921;49.368;11.068;2022-08-25T01:27:19;97571.88;;;14.62;100.00
3812;BME280;1921;49.368;11.068;2022-08-25T01:29:45;97393.97;;;13.46;100.00
3812;BME280;1921;49.368;11.068;2022-08-25T01:32:12;97751.53;;;15.85;100.00
3812;BME280;1921;49.368;11.068;2022-08-25T01:34:41;97701.22;;;15.55;100.00
3812;BME280;1921;49.368;11.068;2022-08-25T01:37:10;97758.00;;;15.82;100.00
3812;BME280;1921;49.368;11.068;2022-08-25T01:39:36;97664.53;;;15.22;100.00
3812;BME280;1921;49.368;11.068;2022-08-25T01:44:32;97543.63;;;14.57;100.00
3812;BME280;1921;49.368;11.068;2022-08-25T01:47:00;97421.00;;;13.93;100.00
3812;BME280;1921;49.368;11.068;2022-08-25T01:49:26;97567.22;;;14.64;100.00
3812;BME280;1921;49.368;11.068;2022-08-25T01:52:05;97711.34;;;15.51;100.00
3812;BME280;1921;49.368;11.068;2022-08-25T01:54:31;97497.59;;;14.21;100.00
3812;BME280;1921;49.368;11.068;2022-08-25T01:56:58;97433.25;;;13.53;100.00
3812;BME280;1921;49.368;11.068;2022-08-25T01:59:24;97405.66;;;13.43;100.00
3812;BME280;1921;49.368;11.068;2022-08-25T02:01:51;97781.91;;;15.74;100.00
3812;BME280;1921;49.368;11.068;2022-08-25T02:04:17;97650.22;;;14.85;100.00
3812;BME280;1921;49.368;11.068;2022-08-25T02:06:43;97496.81;;;13.81;100.00
3812;BME280;1921;49.368;11.068;2022-08-25T02:09:15;97567.03;;;14.19;100.00
3812;BME280;1921;49.368;11.068;2022-08-25T02:11:44;97800.50;;;15.79;100.00
3812;BME280;1921;49.368;11.068;2022-08-25T02:14:12;97728.56;;;15.27;100.00
3812;BME280;1921;49.368;11.068;2022-08-25T02:16:40;97624.59;;;14.60;100.00
3812;BME280;1921;49.368;11.068;2022-08-25T02:19:10;97549.66;;;14.31;100.00
3812;BME280;1921;49.368;11.068;2022-08-25T02:21:37;97621.75;;;14.55;100.00
3812;BME280;1921;49.368;11.068;2022-08-25T02:24:04;97575.09;;;14.31;100.00
3812;BME280;1921;49.368;11.068;2022-08-25T02:26:31;97661.53;;;14.92;100.00
3812;BME280;1921;49.368;11.068;2022-08-25T02:28:57;97742.31;;;15.29;100.00
3812;BME280;1921;49.368;11.068;2022-08-25T02:31:24;97639.13;;;14.69;100.00
3812;BME280;1921;49.368;11.068;2022-08-25T02:33:51;97804.19;;;15.65;100.00
3812;BME280;1921;49.368;11.068;2022-08-25T02:36:17;97773.03;;;15.62;100.00
3812;BME280;1921;49.368;11.068;2022-08-25T02:38:44;97833.84;;;16.05;100.00
3812;BME280;1921;49.368;11.068;2022-08-25T02:41:21;97716.06;;;15.23;100.00
3812;BME280;1921;49.368;11.068;2022-08-25T02:43:49;97410.88;;;13.24;100.00
3812;BME280;1921;49.368;11.068;2022-08-25T02:46:18;97543.19;;;13.94;100.00
3812;BME280;1921;49.368;11.068;2022-08-25T02:48:45;97560.56;;;14.15;100.00
3812;BME280;1921;49.368;11.068;2022-08-25T02:51:12;97816.50;;;15.84;100.00
3812;BME280;1921;49.368;11.068;2022-08-25T02:53:40;97558.72;;;14.22;100.00
3812;BME280;1921;49.368;11.068;2022-08-25T02:56:08;97569.22;;;14.22;100.00
3812;BME280;1921;49.368;11.068;2022-08-25T02:58:37;97623.13;;;14.38;100.00
3812;BME280;1921;49.368;11.068;2022-08-25T03:01:03;97531.31;;;13.91;100.00
3812;BME280;1921;49.368;11.068;2022-08-25T03:03:30;97706.38;;;15.10;100.00
3812;BME280;1921;49.368;11.068;2022-08-25T03:05:56;97763.72;;;15.53;100.00
3812;BME280;1921;49.368;11.068;2022-08-25T03:08:23;97530.91;;;14.01;100.00
3812;BME280;1921;49.368;11.068;2022-08-25T03:10:48;97607.41;;;14.58;100.00
3812;BME280;1921;49.368;11.068;2022-08-25T03:13:14;97605.22;;;14.48;100.00
3812;BME280;1921;49.368;11.068;2022-08-25T03:15:41;97634.47;;;14.65;100.00
3812;BME280;1921;49.368;11.068;2022-08-25T03:18:07;97507.09;;;13.96;100.00
3812;BME280;1921;49.368;11.068;2022-08-25T03:20:33;97545.22;;;14.12;100.00
3812;BME280;1921;49.368;11.068;2022-08-25T03:23:01;97701.72;;;14.86;100.00
3812;BME280;1921;49.368;11.068;2022-08-25T03:25:28;97707.78;;;14.79;100.00
3812;BME280;1921;49.368;11.068;2022-08-25T03:28:13;97633.66;;;14.51;100.00
3812;BME280;1921;49.368;11.068;2022-08-25T03:30:40;97408.44;;;13.29;100.00
3812;BME280;1921;49.368;11.068;2022-08-25T03:33:06;97740.50;;;15.23;100.00
3812;BME280;1921;49.368;11.068;2022-08-25T03:35:32;97701.13;;;15.03;100.00
3812;BME280;1921;49.368;11.068;2022-08-25T03:37:58;97643.50;;;14.29;100.00
3812;BME280;1921;49.368;11.068;2022-08-25T03:40:25;97732.00;;;14.68;100.00
3812;BME280;1921;49.368;11.068;2022-08-25T03:42:51;97572.38;;;13.64;100.00
3812;BME280;1921;49.368;11.068;2022-08-25T03:45:17;97570.13;;;13.55;100.00
3812;BME280;1921;49.368;11.068;2022-08-25T03:47:47;97551.22;;;13.72;100.00
3812;BME280;1921;49.368;11.068;2022-08-25T03:50:15;97615.16;;;13.85;100.00
3812;BME280;1921;49.368;11.068;2022-08-25T03:52:41;97761.72;;;14.89;100.00
3812;BME280;1921;49.368;11.068;2022-08-25T03:55:10;97523.94;;;13.47;100.00
3812;BME280;1921;49.368;11.068;2022-08-25T03:57:36;97603.47;;;13.87;100.00
3812;BME280;1921;49.368;11.068;2022-08-25T04:00:06;97562.91;;;13.77;100.00
3812;BME280;1921;49.368;11.068;2022-08-25T04:02:32;97554.84;;;13.78;100.00
3812;BME280;1921;49.368;11.068;2022-08-25T04:04:58;97789.19;;;14.99;100.00
3812;BME280;1921;49.368;11.068;2022-08-25T04:07:24;97697.81;;;14.42;100.00
3812;BME280;1921;49.368;11.068;2022-08-25T04:09:53;97651.78;;;14.33;100.00
3812;BME280;1921;49.368;11.068;2022-08-25T04:12:20;97547.78;;;13.72;100.00
3812;BME280;1921;49.368;11.068;2022-08-25T04:14:46;97856.31;;;15.88;100.00
3812;BME280;1921;49.368;11.068;2022-08-25T04:17:13;97647.56;;;14.45;100.00
3812;BME280;1921;49.368;11.068;2022-08-25T04:19:39;97598.72;;;14.24;100.00
3812;BME280;1921;49.368;11.068;2022-08-25T04:22:05;97557.47;;;13.85;100.00
3812;BME280;1921;49.368;11.068;2022-08-25T04:24:31;97717.06;;;14.89;100.00
3812;BME280;1921;49.368;11.068;2022-08-25T04:26:57;97567.81;;;13.99;100.00
3812;BME280;1921;49.368;11.068;2022-08-25T04:29:24;97583.34;;;14.14;100.00
3812;BME280;1921;49.368;11.068;2022-08-25T04:31:51;97687.38;;;14.88;100.00
3812;BME280;1921;49.368;11.068;2022-08-25T04:34:21;97583.75;;;14.05;100.00
3812;BME280;1921;49.368;11.068;2022-08-25T04:36:48;97763.94;;;15.25;100.00
3812;BME280;1921;49.368;11.068;2022-08-25T04:39:16;97658.88;;;14.52;100.00
3812;BME280;1921;49.368;11.068;2022-08-25T04:41:45;97527.66;;;13.86;100.00
3812;BME280;1921;49.368;11.068;2022-08-25T04:44:11;97585.81;;;14.22;100.00
3812;BME280;1921;49.368;11.068;2022-08-25T04:46:37;97686.97;;;14.98;100.00
3812;BME280;1921;49.368;11.068;2022-08-25T04:49:03;97607.63;;;14.69;100.00
3812;BME280;1921;49.368;11.068;2022-08-25T04:51:40;97451.22;;;13.89;100.00
3812;BME280;1921;49.368;11.068;2022-08-25T04:54:12;97504.69;;;14.47;100.00
3812;BME280;1921;49.368;11.068;2022-08-25T04:56:40;97647.25;;;15.66;100.00
3812;BME280;1921;49.368;11.068;2022-08-25T04:59:10;97636.91;;;16.09;100.00
3812;BME280;1921;49.368;11.068;2022-08-25T05:01:37;97649.06;;;16.66;100.00
3812;BME280;1921;49.368;11.068;2022-08-25T05:04:06;97465.91;;;15.84;100.00
3812;BME280;1921;49.368;11.068;2022-08-25T05:06:33;97554.03;;;16.93;100.00
3812;BME280;1921;49.368;11.068;2022-08-25T05:09:00;97712.22;;;18.03;91.91
3812;BME280;1921;49.368;11.068;2022-08-25T05:11:26;97730.28;;;18.36;89.59
3812;BME280;1921;49.368;11.068;2022-08-25T05:13:54;97536.03;;;17.27;89.67
3812;BME280;1921;49.368;11.068;2022-08-25T05:16:23;97529.13;;;17.07;87.13
3812;BME280;1921;49.368;11.068;2022-08-25T05:18:49;97625.03;;;17.61;88.47
3812;BME280;1921;49.368;11.068;2022-08-25T05:21:20;97659.09;;;17.63;89.03
3812;BME280;1921;49.368;11.068;2022-08-25T05:23:46;97494.50;;;16.67;90.20
3812;BME280;1921;49.368;11.068;2022-08-25T05:26:19;97719.09;;;18.22;87.30
3812;BME280;1921;49.368;11.068;2022-08-25T05:28:49;97572.31;;;17.43;88.40
3812;BME280;1921;49.368;11.068;2022-08-25T05:31:15;97525.19;;;17.65;86.64
3812;BME280;1921;49.368;11.068;2022-08-25T05:33:42;97677.75;;;18.58;86.69
3812;BME280;1921;49.368;11.068;2022-08-25T05:36:10;97504.97;;;17.59;87.20
3812;BME280;1921;49.368;11.068;2022-08-25T05:38:37;97668.16;;;18.75;85.58
3812;BME280;1921;49.368;11.068;2022-08-25T05:41:10;97815.97;;;20.12;86.70
3812;BME280;1921;49.368;11.068;2022-08-25T05:43:39;97690.47;;;19.61;84.54
3812;BME280;1921;49.368;11.068;2022-08-25T05:46:06;97830.66;;;20.72;83.73
3812;BME280;1921;49.368;11.068;2022-08-25T05:48:32;97801.09;;;20.63;83.05
3812;BME280;1921;49.368;11.068;2022-08-25T05:51:01;97805.44;;;20.69;82.43
3812;BME280;1921;49.368;11.068;2022-08-25T05:53:29;97763.47;;;20.50;81.76
3812;BME280;1921;49.368;11.068;2022-08-25T05:55:57;97834.13;;;21.01;81.73
3812;BME280;1921;49.368;11.068;2022-08-25T05:58:24;97804.50;;;20.76;79.95
3812;BME280;1921;49.368;11.068;2022-08-25T06:00:51;97798.72;;;20.79;80.83
3812;BME280;1921;49.368;11.068;2022-08-25T06:03:17;97810.66;;;21.10;81.94
3812;BME280;1921;49.368;11.068;2022-08-25T06:05:43;97796.88;;;21.41;80.53
3812;BME280;1921;49.368;11.068;2022-08-25T06:08:09;97829.94;;;22.06;79.40
3812;BME280;1921;49.368;11.068;2022-08-25T06:10:35;97818.00;;;22.09;77.18
3812;BME280;1921;49.368;11.068;2022-08-25T06:13:01;97830.16;;;22.43;76.00
3812;BME280;1921;49.368;11.068;2022-08-25T06:15:28;97798.19;;;22.16;77.94
3812;BME280;1921;49.368;11.068;2022-08-25T06:17:54;97806.00;;;22.45;75.81
3812;BME280;1921;49.368;11.068;2022-08-25T06:20:26;97851.41;;;22.87;75.22
3812;BME280;1921;49.368;11.068;2022-08-25T06:22:53;97785.34;;;22.52;73.45
3812;BME280;1921;49.368;11.068;2022-08-25T06:25:22;97804.78;;;22.79;74.31
3812;BME280;1921;49.368;11.068;2022-08-25T06:27:48;97823.88;;;22.98;73.86
3812;BME280;1921;49.368;11.068;2022-08-25T06:30:18;97834.34;;;23.10;73.71
3812;BME280;1921;49.368;11.068;2022-08-25T06:32:45;97805.25;;;22.98;73.86
3812;BME280;1921;49.368;11.068;2022-08-25T06:35:18;97843.97;;;23.16;73.90
3812;BME280;1921;49.368;11.068;2022-08-25T06:37:45;97834.25;;;23.00;74.03
3812;BME280;1921;49.368;11.068;2022-08-25T06:40:13;97814.91;;;22.82;74.28
3812;BME280;1921;49.368;11.068;2022-08-25T06:42:39;97843.44;;;22.87;74.86
3812;BME280;1921;49.368;11.068;2022-08-25T06:45:05;97831.19;;;22.64;75.56
3812;BME280;1921;49.368;11.068;2022-08-25T06:47:31;97802.81;;;22.48;76.11
3812;BME280;1921;49.368;11.068;2022-08-25T06:49:57;97793.44;;;22.40;76.31
3812;BME280;1921;49.368;11.068;2022-08-25T06:52:23;97776.03;;;22.27;76.44
3812;BME280;1921;49.368;11.068;2022-08-25T06:54:49;97802.22;;;22.41;76.88
3812;BME280;1921;49.368;11.068;2022-08-25T06:57:15;97815.81;;;22.44;77.33
3812;BME280;1921;49.368;11.068;2022-08-25T06:59:41;97754.97;;;22.04;77.84
3812;BME280;1921;49.368;11.068;2022-08-25T07:02:07;97593.72;;;20.90;78.28
3812;BME280;1921;49.368;11.068;2022-08-25T07:04:34;97665.78;;;21.42;78.52
3812;BME280;1921;49.368;11.068;2022-08-25T07:07:00;97574.28;;;20.34;81.96
3812;BME280;1921;49.368;11.068;2022-08-25T07:09:26;97514.78;;;20.25;81.78
3812;BME280;1921;49.368;11.068;2022-08-25T07:11:52;97737.94;;;22.00;80.89
3812;BME280;1921;49.368;11.068;2022-08-25T07:14:19;97403.53;;;20.03;76.85
3812;BME280;1921;49.368;11.068;2022-08-25T07:16:46;97673.66;;;21.54;78.36
3812;BME280;1921;49.368;11.068;2022-08-25T07:19:12;97664.91;;;21.75;80.05
3812;BME280;1921;49.368;11.068;2022-08-25T07:21:40;97519.66;;;21.05;77.55
3812;BME280;1921;49.368;11.068;2022-08-25T07:24:11;97676.69;;;22.61;75.75
3812;BME280;1921;49.368;11.068;2022-08-25T07:26:39;97664.88;;;23.10;72.86
3812;BME280;1921;49.368;11.068;2022-08-25T07:29:19;97588.19;;;23.02;72.54
3812;BME280;1921;49.368;11.068;2022-08-25T07:31:45;97670.06;;;23.85;71.07
3812;BME280;1921;49.368;11.068;2022-08-25T07:34:11;97643.19;;;24.02;70.34
3812;BME280;1921;49.368;11.068;2022-08-25T07:36:57;97465.06;;;23.12;67.08
3812;BME280;1921;49.368;11.068;2022-08-25T07:39:24;97574.13;;;23.70;68.32
3812;BME280;1921;49.368;11.068;2022-08-25T07:41:51;97653.44;;;24.46;69.02
3812;BME280;1921;49.368;11.068;2022-08-25T07:44:17;97523.25;;;22.93;70.63
3812;BME280;1921;49.368;11.068;2022-08-25T07:46:43;97533.72;;;22.30;73.33
3812;BME280;1921;49.368;11.068;2022-08-25T07:49:08;97465.97;;;21.37;75.36
3812;BME280;1921;49.368;11.068;2022-08-25T07:51:34;97622.50;;;22.99;74.54
3812;BME280;1921;49.368;11.068;2022-08-25T07:54:00;97580.66;;;23.36;70.16
3812;BME280;1921;49.368;11.068;2022-08-25T07:56:26;97642.94;;;23.35;71.46
3812;BME280;1921;49.368;11.068;2022-08-25T07:58:52;97606.78;;;23.50;70.31
3812;BME280;1921;49.368;11.068;2022-08-25T08:01:22;97548.50;;;23.58;68.55
3812;BME280;1921;49.368;11.068;2022-08-25T08:03:49;97537.19;;;24.04;66.38
3812;BME280;1921;49.368;11.068;2022-08-25T08:06:18;97567.84;;;24.47;66.72
3812;BME280;1921;49.368;11.068;2022-08-25T08:08:46;97575.31;;;24.45;65.70
3812;BME280;1921;49.368;11.068;2022-08-25T08:11:27;97653.84;;;25.60;64.57
3812;BME280;1921;49.368;11.068;2022-08-25T08:13:54;97514.41;;;25.03;63.09
3812;BME280;1921;49.368;11.068;2022-08-25T08:16:23;97628.75;;;26.54;60.72
3812;BME280;1921;49.368;11.068;2022-08-25T08:18:50;97565.22;;;26.94;58.30
3812;BME280;1921;49.368;11.068;2022-08-25T08:21:20;97532.41;;;26.60;55.28
3812;BME280;1921;49.368;11.068;2022-08-25T08:23:50;97570.41;;;26.86;57.21
3812;BME280;1921;49.368;11.068;2022-08-25T08:26:17;97681.34;;;28.04;54.13
3812;BME280;1921;49.368;11.068;2022-08-25T08:28:43;97701.16;;;28.27;55.51
3812;BME280;1921;49.368;11.068;2022-08-25T08:31:10;97790.03;;;29.66;53.34
3812;BME280;1921;49.368;11.068;2022-08-25T08:33:36;97519.38;;;28.38;50.81
3812;BME280;1921;49.368;11.068;2022-08-25T08:36:07;97616.56;;;29.41;50.05
3812;BME280;1921;49.368;11.068;2022-08-25T08:38:35;97693.81;;;30.54;47.55
3812;BME280;1921;49.368;11.068;2022-08-25T08:52:09;97642.84;;;34.22;37.67
3812;BME280;1921;49.368;11.068;2022-08-25T08:54:38;97569.19;;;34.49;36.55
3812;BME280;1921;49.368;11.068;2022-08-25T08:57:17;97791.78;;;36.17;35.98
3812;BME280;1921;49.368;11.068;2022-08-25T08:59:54;97521.81;;;34.35;35.88
3812;BME280;1921;49.368;11.068;2022-08-25T09:03:02;97775.03;;;36.80;34.38
3812;BME280;1921;49.368;11.068;2022-08-25T09:05:36;97645.56;;;36.19;34.17
3812;BME280;1921;49.368;11.068;2022-08-25T09:08:11;97491.78;;;35.86;33.75
3812;BME280;1921;49.368;11.068;2022-08-25T09:14:12;97603.81;;;36.11;33.15
3812;BME280;1921;49.368;11.068;2022-08-25T09:16:26;97618.84;;;34.87;34.70
3812;BME280;1921;49.368;11.068;2022-08-25T09:22:51;97773.28;;;37.00;32.93
3812;BME280;1921;49.368;11.068;2022-08-25T09:33:24;97662.66;;;35.22;35.24
3812;BME280;1921;49.368;11.068;2022-08-25T09:35:52;97561.75;;;34.25;35.64
3812;BME280;1921;49.368;11.068;2022-08-25T09:38:18;97640.03;;;33.89;36.81
3812;BME280;1921;49.368;11.068;2022-08-25T09:40:48;97662.47;;;34.19;37.25
3812;BME280;1921;49.368;11.068;2022-08-25T09:46:15;97433.84;;;32.06;38.89
3812;BME280;1921;49.368;11.068;2022-08-25T09:48:52;97627.59;;;33.37;38.44
3812;BME280;1921;49.368;11.068;2022-08-25T09:56:59;97406.84;;;31.10;39.81
3812;BME280;1921;49.368;11.068;2022-08-25T09:59:30;97753.00;;;33.07;41.12
3812;BME280;1921;49.368;11.068;2022-08-25T10:02:01;97405.88;;;30.89;40.22
3812;BME280;1921;49.368;11.068;2022-08-25T10:04:37;97530.63;;;31.73;41.20
3812;BME280;1921;49.368;11.068;2022-08-25T10:09:57;97646.34;;;33.72;38.57
3812;BME280;1921;49.368;11.068;2022-08-25T10:12:41;97410.16;;;33.17;36.28
3812;BME280;1921;49.368;11.068;2022-08-25T10:15:29;97567.84;;;35.25;34.23
3812;BME280;1921;49.368;11.068;2022-08-25T10:17:55;97566.09;;;35.82;33.14
3812;BME280;1921;49.368;11.068;2022-08-25T10:20:26;97574.53;;;36.33;32.41
3812;BME280;1921;49.368;11.068;2022-08-25T10:23:10;97410.94;;;35.80;32.22
3812;BME280;1921;49.368;11.068;2022-08-25T10:25:44;97551.72;;;38.18;30.10
3812;BME280;1921;49.368;11.068;2022-08-25T10:31:14;97587.59;;;34.02;35.21
3812;BME280;1921;49.368;11.068;2022-08-25T10:39:44;97463.25;;;30.50;41.95
3812;BME280;1921;49.368;11.068;2022-08-25T10:45:28;97125.72;;;26.65;45.65
3812;BME280;1921;49.368;11.068;2022-08-25T10:48:42;97676.66;;;31.18;43.64
3812;BME280;1921;49.368;11.068;2022-08-25T10:51:46;97457.19;;;28.50;46.30
3812;BME280;1921;49.368;11.068;2022-08-25T10:54:33;97667.44;;;29.93;45.97
3812;BME280;1921;49.368;11.068;2022-08-25T11:00:08;97488.78;;;29.35;44.22
3812;BME280;1921;49.368;11.068;2022-08-25T11:05:37;97565.13;;;30.65;41.23
3812;BME280;1921;49.368;11.068;2022-08-25T11:11:04;97445.31;;;30.85;39.31
3812;BME280;1921;49.368;11.068;2022-08-25T11:13:49;97571.03;;;30.22;42.85
3812;BME280;1921;49.368;11.068;2022-08-25T11:16:35;97410.81;;;29.49;43.56
3812;BME280;1921;49.368;11.068;2022-08-25T11:22:15;97660.44;;;28.77;49.87
3812;BME280;1921;49.368;11.068;2022-08-25T11:25:24;97662.63;;;28.18;52.67
3812;BME280;1921;49.368;11.068;2022-08-25T11:30:28;97494.16;;;28.39;47.07
3812;BME280;1921;49.368;11.068;2022-08-25T11:32:55;97323.19;;;27.84;46.62
3812;BME280;1921;49.368;11.068;2022-08-25T11:35:45;97368.47;;;27.53;46.04
3812;BME280;1921;49.368;11.068;2022-08-25T11:38:50;97659.00;;;29.72;46.49
3812;BME280;1921;49.368;11.068;2022-08-25T11:47:55;97555.44;;;27.75;50.95
3812;BME280;1921;49.368;11.068;2022-08-25T11:50:30;97475.88;;;28.08;49.12
3812;BME280;1921;49.368;11.068;2022-08-25T11:55:53;97387.31;;;27.81;48.74
3812;BME280;1921;49.368;11.068;2022-08-25T12:00:59;97336.13;;;29.15;41.95
3812;BME280;1921;49.368;11.068;2022-08-25T12:11:53;97475.88;;;29.73;42.32
3812;BME280;1921;49.368;11.068;2022-08-25T12:27:35;97365.34;;;26.90;48.80
3812;BME280;1921;49.368;11.068;2022-08-25T12:33:17;97450.28;;;27.83;47.59
3812;BME280;1921;49.368;11.068;2022-08-25T12:38:46;97304.34;;;27.89;45.30
3812;BME280;1921;49.368;11.068;2022-08-25T12:41:17;97422.00;;;28.37;46.18
3812;BME280;1921;49.368;11.068;2022-08-25T12:43:49;97440.25;;;29.32;44.79
3812;BME280;1921;49.368;11.068;2022-08-25T12:49:29;97444.47;;;29.46;43.93
3812;BME280;1921;49.368;11.068;2022-08-25T12:52:27;97125.81;;;27.88;42.12
3812;BME280;1921;49.368;11.068;2022-08-25T12:55:04;97422.50;;;27.93;45.79
3812;BME280;1921;49.368;11.068;2022-08-25T12:57:45;97323.66;;;28.33;43.75
3812;BME280;1921;49.368;11.068;2022-08-25T13:00:28;97464.03;;;29.24;43.02
3812;BME280;1921;49.368;11.068;2022-08-25T13:03:40;97610.03;;;28.87;47.49
3812;BME280;1921;49.368;11.068;2022-08-25T13:06:36;97200.22;;;25.43;49.45
3812;BME280;1921;49.368;11.068;2022-08-25T13:13:12;97437.13;;;28.47;46.48
3812;BME280;1921;49.368;11.068;2022-08-25T13:15:56;97386.63;;;29.27;43.56
3812;BME280;1921;49.368;11.068;2022-08-25T13:18:26;97439.34;;;30.97;40.79
3812;BME280;1921;49.368;11.068;2022-08-25T13:21:07;97592.63;;;32.94;38.86
3812;BME280;1921;49.368;11.068;2022-08-25T13:23:42;97287.78;;;32.07;36.30
3812;BME280;1921;49.368;11.068;2022-08-25T13:26:25;97374.53;;;33.36;35.18
3812;BME280;1921;49.368;11.068;2022-08-25T13:31:32;97192.47;;;32.87;33.86
3812;BME280;1921;49.368;11.068;2022-08-25T13:34:04;97481.16;;;34.43;34.28
3812;BME280;1921;49.368;11.068;2022-08-25T13:36:42;97455.44;;;32.53;37.25
3812;BME280;1921;49.368;11.068;2022-08-25T13:39:29;97355.69;;;31.02;39.68
3812;BME280;1921;49.368;11.068;2022-08-25T13:41:59;97400.31;;;30.37;41.61
3812;BME280;1921;49.368;11.068;2022-08-25T13:44:28;97518.63;;;29.61;45.20
3812;BME280;1921;49.368;11.068;2022-08-25T13:55:37;97565.81;;;29.40;47.01
3812;BME280;1921;49.368;11.068;2022-08-25T13:58:05;97207.59;;;28.13;44.46
3812;BME280;1921;49.368;11.068;2022-08-25T14:00:44;97379.84;;;28.93;44.80
3812;BME280;1921;49.368;11.068;2022-08-25T14:03:37;97393.50;;;29.55;42.99
3812;BME280;1921;49.368;11.068;2022-08-25T14:06:23;97347.66;;;28.10;45.60
3812;BME280;1921;49.368;11.068;2022-08-25T14:11:42;97547.13;;;29.35;46.09
3812;BME280;1921;49.368;11.068;2022-08-25T14:14:31;97307.06;;;28.94;43.80
3812;BME280;1921;49.368;11.068;2022-08-25T14:17:08;97308.91;;;29.84;41.27
3812;BME280;1921;49.368;11.068;2022-08-25T14:19:41;97283.56;;;30.73;39.32
3812;BME280;1921;49.368;11.068;2022-08-25T14:22:10;97252.00;;;30.39;39.15
3812;BME280;1921;49.368;11.068;2022-08-25T14:24:37;97228.91;;;31.07;37.83
3812;BME280;1921;49.368;11.068;2022-08-25T14:27:04;97202.44;;;30.66;37.60
3812;BME280;1921;49.368;11.068;2022-08-25T14:29:30;97248.41;;;28.74;42.40
3812;BME280;1921;49.368;11.068;2022-08-25T14:31:56;97167.00;;;27.24;45.46
3812;BME280;1921;49.368;11.068;2022-08-25T14:34:26;97167.63;;;27.76;44.00
3812;BME280;1921;49.368;11.068;2022-08-25T14:36:53;97189.91;;;28.85;41.21
3812;BME280;1921;49.368;11.068;2022-08-25T14:39:19;97299.09;;;29.26;42.14
3812;BME280;1921;49.368;11.068;2022-08-25T14:41:45;97442.97;;;30.52;41.30
3812;BME280;1921;49.368;11.068;2022-08-25T14:44:12;97355.91;;;29.41;42.38
3812;BME280;1921;49.368;11.068;2022-08-25T14:46:51;97340.75;;;29.23;42.58
3812;BME280;1921;49.368;11.068;2022-08-25T14:49:23;97210.34;;;29.70;39.87
3812;BME280;1921;49.368;11.068;2022-08-25T14:51:51;97240.94;;;31.27;38.29
3812;BME280;1921;49.368;11.068;2022-08-25T14:54:19;97167.78;;;30.73;37.16
3812;BME280;1921;49.368;11.068;2022-08-25T14:56:47;97123.66;;;28.94;39.78
3812;BME280;1921;49.368;11.068;2022-08-25T14:59:14;97226.56;;;29.26;40.28
3812;BME280;1921;49.368;11.068;2022-08-25T15:01:40;97258.66;;;29.53;40.39
3812;BME280;1921;49.368;11.068;2022-08-25T15:04:19;97381.97;;;31.05;39.29
3812;BME280;1921;49.368;11.068;2022-08-25T15:06:57;97345.09;;;30.40;39.12
3812;BME280;1921;49.368;11.068;2022-08-25T15:09:24;97163.38;;;28.83;39.48
3812;BME280;1921;49.368;11.068;2022-08-25T15:11:53;97147.78;;;29.96;37.60
3812;BME280;1921;49.368;11.068;2022-08-25T15:14:21;97308.19;;;32.17;35.24
3812;BME280;1921;49.368;11.068;2022-08-25T15:16:52;97206.94;;;31.90;35.01
3812;BME280;1921;49.368;11.068;2022-08-25T15:19:22;97210.75;;;31.89;34.83
3812;BME280;1921;49.368;11.068;2022-08-25T15:21:49;97214.78;;;32.33;33.80
3812;BME280;1921;49.368;11.068;2022-08-25T15:24:16;97275.41;;;33.40;33.51
3812;BME280;1921;49.368;11.068;2022-08-25T15:27:01;97408.19;;;35.24;33.08
3812;BME280;1921;49.368;11.068;2022-08-25T15:29:30;97358.94;;;35.78;30.92
3812;BME280;1921;49.368;11.068;2022-08-25T15:31:58;97470.44;;;36.76;30.72
3812;BME280;1921;49.368;11.068;2022-08-25T15:34:24;97224.50;;;34.93;30.07
3812;BME280;1921;49.368;11.068;2022-08-25T15:36:50;97294.66;;;34.70;31.13